Airfield :
LOGIN :

Register | Disclaimer

   EN    FR    IT 

 










Legend :    VFR   Marginal VFR   IFR   Intensive IFR   Very Intensive IFR
Visi :
Ceiling :
>= 8 km
>= 3000ft
5 to 8 km
1000 to 3000 ft
1500m to 5 km
500 to 1000 ft
800 to 1500m
200 to 500 ft
< 800m
< 200 ft
Symbols :   Thunderstorms  Fog  Heavy snow  Heavy precipitations  Wind > 20 kt
SIGMETs :     Misc.  Thunderstorms  Icing  Turbulence  Mountain Waves  Volcanic Ashes







- Airport Elevation : 53 ft
- IATA code : HAM


EDDH - Hamburg

CURRENT METAR :
  • 261820Z 29012KT 9999 -SHRA FEW007 SCT023 06/05 Q1026 NOSIG

EXPIRED METARs :
  • 261750Z 30010KT 9999 FEW007 SCT021 BKN047 06/05 Q1026 NOSIG
  • 261720Z 29005KT 5000 -RADZ SCT005 SCT012 BKN021 06/05 Q1026 NOSIG
  • 261650Z 29006KT 4800 -RADZ FEW005 SCT012 BKN018 06/05 Q1026 BECMG 8000
  • 261620Z 30009KT 6000 -RADZ FEW017 BKN024 07/04 Q1026 TEMPO 4500 RA BKN011
  • 261550Z 30016KT 9999 -RA FEW020 BKN026 08/03 Q1025 TEMPO 4500 RA BKN011

TAF TAF EDDH
Valid from the 26 at 18:00 until the 28 at 00:00 UTC


261700Z 2618/2724 28010KT 9999 FEW015 BKN030
BECMG 2618/2621 BKN012
TEMPO 2622/2706 3500 -RADZ BKN007
BECMG 2706/2708 OVC007
TEMPO 2706/2724 3500 -RADZ
PROB30
TEMPO 2706/2724 2500 -DZRA BKN004
No reported NOTAMs for that airfield.



MET'MAP, your aeronautical weather chart ! - Copyright ORBIFLY December 2007 - Disclaimer

ORBIFLY MET'MAP TEAM :

Programming & Development : Alexandra Zaïnal
Concept & Development : Baudouin d'Aumeries
Co-Development & Prog : Marc-Olivier Méhu
Technical & hardware support : Manuel Goepfert

Contact : metmap@orbifly.com




SOURCES & CREDITS :

   NOAA